createdAt,value
2023-03-06T00:00:33.915Z,87.25
2023-03-06T00:01:33.869Z,87.46
2023-03-06T00:02:33.908Z,87.25
2023-03-06T00:03:33.943Z,87.35
2023-03-06T00:04:33.856Z,87.71
2023-03-06T00:05:33.852Z,87.60
2023-03-06T00:06:33.809Z,87.50
2023-03-06T00:07:33.810Z,87.50
2023-03-06T00:08:33.819Z,87.50
2023-03-06T00:09:33.777Z,87.81
2023-03-06T00:10:33.769Z,87.66
2023-03-06T00:11:33.757Z,87.77
2023-03-06T00:12:33.753Z,88.02
2023-03-06T00:13:33.763Z,87.88
2023-03-06T00:14:33.718Z,87.71
2023-03-06T00:15:33.741Z,88.09
2023-03-06T00:16:33.781Z,88.09
2023-03-06T00:17:33.710Z,87.98
2023-03-06T00:18:33.756Z,88.33
2023-03-06T00:19:33.704Z,88.33
2023-03-06T00:20:33.652Z,88.60
2023-03-06T00:21:33.669Z,88.64
2023-03-06T00:22:33.647Z,88.50
2023-03-06T00:23:33.624Z,88.23
2023-03-06T00:24:33.625Z,88.54
2023-03-06T00:25:33.607Z,88.64
2023-03-06T00:26:33.630Z,88.75
2023-03-06T00:27:33.579Z,88.85
2023-03-06T00:28:33.566Z,88.85
2023-03-06T00:29:33.559Z,88.96
2023-03-06T00:30:33.563Z,88.96
2023-03-06T00:31:33.609Z,89.37
2023-03-06T00:32:33.565Z,89.06
2023-03-06T00:33:33.523Z,89.17
2023-03-06T00:34:33.520Z,89.17
2023-03-06T00:35:33.537Z,89.06
2023-03-06T00:36:33.489Z,89.37
2023-03-06T00:37:33.466Z,88.85
2023-03-06T00:38:33.502Z,89.06
2023-03-06T00:39:33.460Z,88.64
2023-03-06T00:40:33.530Z,88.96
2023-03-06T00:41:33.432Z,89.17
2023-03-06T00:42:33.409Z,89.17
2023-03-06T00:43:33.404Z,89.17
2023-03-06T00:44:33.412Z,88.85
2023-03-06T00:45:33.473Z,89.37
2023-03-06T00:46:33.374Z,88.96
2023-03-06T00:47:33.363Z,89.27
2023-03-06T00:48:33.350Z,89.17
2023-03-06T00:49:33.334Z,88.85
2023-03-06T00:50:33.407Z,89.17
2023-03-06T00:51:33.317Z,89.48
2023-03-06T00:52:33.303Z,89.37
2023-03-06T00:53:33.312Z,89.06
2023-03-06T00:54:33.336Z,89.37
2023-03-06T00:55:33.319Z,89.17
2023-03-06T00:56:33.258Z,88.96
2023-03-06T00:57:33.251Z,89.69
2023-03-06T00:58:33.242Z,90.00
2023-03-06T00:59:33.246Z,89.06
2023-03-06T01:00:33.246Z,89.58
2023-03-06T01:01:33.203Z,89.27
2023-03-06T01:02:33.274Z,90.00
2023-03-06T01:03:33.214Z,89.17
2023-03-06T01:04:33.185Z,89.69
2023-03-06T01:05:33.154Z,89.37
2023-03-06T01:06:33.189Z,89.27
2023-03-06T01:07:33.131Z,88.96
2023-03-06T01:08:33.119Z,89.48
2023-03-06T01:09:33.108Z,90.04
2023-03-06T01:10:33.134Z,90.00
2023-03-06T01:11:33.119Z,89.58
2023-03-06T01:12:33.094Z,89.06
2023-03-06T01:13:33.068Z,90.10
2023-03-06T01:14:33.094Z,90.10
2023-03-06T01:15:33.043Z,90.20
2023-03-06T01:16:33.079Z,89.69
2023-03-06T01:17:33.055Z,89.79
2023-03-06T01:18:33.011Z,89.48
2023-03-06T01:19:33.008Z,89.58
2023-03-06T01:20:32.993Z,89.79
2023-03-06T01:21:32.970Z,90.00
2023-03-06T01:22:33.006Z,90.10
2023-03-06T01:23:32.960Z,90.14
2023-03-06T01:24:32.960Z,89.31
2023-03-06T01:25:32.941Z,89.62
2023-03-06T01:26:32.919Z,89.52
2023-03-06T01:27:32.925Z,89.31
2023-03-06T01:28:32.904Z,89.10
2023-03-06T01:29:32.894Z,90.04
2023-03-06T01:30:32.886Z,89.73
2023-03-06T01:31:32.957Z,90.14
2023-03-06T01:32:32.923Z,90.14
2023-03-06T01:33:32.845Z,90.04
2023-03-06T01:34:32.825Z,90.14
2023-03-06T01:35:32.836Z,90.04
2023-03-06T01:36:32.808Z,90.14
2023-03-06T01:37:32.826Z,89.20
2023-03-06T01:38:32.817Z,89.41
2023-03-06T01:39:32.790Z,89.20
2023-03-06T01:40:32.773Z,89.20
2023-03-06T01:41:32.817Z,89.10
2023-03-06T01:42:32.769Z,89.73
2023-03-06T01:43:32.729Z,89.83
2023-03-06T01:44:32.743Z,90.04
2023-03-06T01:45:32.747Z,89.98
2023-03-06T01:46:32.715Z,90.39
2023-03-06T01:47:32.733Z,90.08
2023-03-06T01:48:32.707Z,90.50
2023-03-06T01:49:32.671Z,90.60
2023-03-06T01:50:32.677Z,91.33
2023-03-06T01:51:32.653Z,91.43
2023-03-06T01:52:32.643Z,90.60
2023-03-06T01:53:32.653Z,90.91
2023-03-06T01:54:32.632Z,90.70
2023-03-06T01:55:32.609Z,90.70
2023-03-06T01:56:32.620Z,90.60
2023-03-06T01:57:32.622Z,90.70
2023-03-06T01:58:32.592Z,90.60
2023-03-06T01:59:32.568Z,90.39
2023-03-06T02:00:32.550Z,90.44
2023-03-06T02:01:32.570Z,90.44
2023-03-06T02:02:32.547Z,90.95
2023-03-06T02:03:32.557Z,91.27
2023-03-06T02:04:32.520Z,91.16
2023-03-06T02:05:32.500Z,91.06
2023-03-06T02:06:32.483Z,91.68
2023-03-06T02:07:32.500Z,91.68
2023-03-06T02:08:32.506Z,91.62
2023-03-06T02:09:32.457Z,91.62
2023-03-06T02:10:32.927Z,91.41
2023-03-06T02:11:33.285Z,91.62
2023-03-06T02:12:32.593Z,92.03
2023-03-06T02:13:32.590Z,91.62
2023-03-06T02:14:32.622Z,91.72
2023-03-06T02:15:32.546Z,91.72
2023-03-06T02:16:32.554Z,91.66
2023-03-06T02:17:32.400Z,91.77
2023-03-06T02:18:32.434Z,91.97
2023-03-06T02:19:33.207Z,91.97
2023-03-06T02:20:32.530Z,92.02
2023-03-06T02:21:32.585Z,92.75
2023-03-06T02:22:32.486Z,92.44
2023-03-06T02:23:32.528Z,92.75
2023-03-06T02:24:32.464Z,92.85
2023-03-06T02:25:32.406Z,93.16
2023-03-06T02:26:32.437Z,92.91
2023-03-06T02:27:32.344Z,93.16
2023-03-06T02:28:32.377Z,93.27
2023-03-06T02:29:32.294Z,93.27
2023-03-06T02:30:32.485Z,93.16
2023-03-06T02:31:32.472Z,93.16
2023-03-06T02:32:32.383Z,94.10
2023-03-06T02:33:32.358Z,93.90
2023-03-06T02:34:32.201Z,93.48
2023-03-06T02:35:32.335Z,93.79
2023-03-06T02:36:32.321Z,93.59
2023-03-06T02:37:32.317Z,94.10
2023-03-06T02:38:32.272Z,94.10
2023-03-06T02:39:32.206Z,93.90
2023-03-06T02:40:32.264Z,93.90
2023-03-06T02:41:32.150Z,93.79
2023-03-06T02:42:40.195Z,93.79
2023-03-06T02:43:32.108Z,93.65
2023-03-06T02:44:32.084Z,93.65
2023-03-06T02:45:32.084Z,93.85
2023-03-06T02:46:32.062Z,93.65
2023-03-06T02:47:32.045Z,93.75
2023-03-06T02:48:32.016Z,93.85
2023-03-06T02:49:32.007Z,93.44
2023-03-06T02:50:31.995Z,93.44
2023-03-06T02:51:32.013Z,93.12
2023-03-06T02:52:31.999Z,93.65
2023-03-06T02:53:31.956Z,93.60
2023-03-06T02:54:31.953Z,93.60
2023-03-06T02:55:31.937Z,93.81
2023-03-06T02:56:31.942Z,93.71
2023-03-06T02:57:31.917Z,93.81
2023-03-06T02:58:31.930Z,93.71
2023-03-06T02:59:31.920Z,93.50
2023-03-06T03:00:31.904Z,93.60
2023-03-06T03:01:31.941Z,93.50
2023-03-06T03:02:31.858Z,93.60
2023-03-06T03:03:31.851Z,93.71
2023-03-06T03:04:31.863Z,94.02
2023-03-06T03:05:31.855Z,93.81
2023-03-06T03:06:31.816Z,93.81
2023-03-06T03:07:31.814Z,93.81
2023-03-06T03:08:31.801Z,93.91
2023-03-06T03:09:31.789Z,94.12
2023-03-06T03:10:31.788Z,93.71
2023-03-06T03:11:31.800Z,93.66
2023-03-06T03:12:31.753Z,93.77
2023-03-06T03:13:31.768Z,93.71
2023-03-06T03:14:31.745Z,93.60
2023-03-06T03:15:31.719Z,93.81
2023-03-06T03:16:31.714Z,93.46
2023-03-06T03:17:31.696Z,93.98
2023-03-06T03:18:31.710Z,93.66
2023-03-06T03:19:31.685Z,93.35
2023-03-06T03:20:31.673Z,93.77
2023-03-06T03:21:31.652Z,93.66
2023-03-06T03:22:31.638Z,94.18
2023-03-06T03:23:31.632Z,93.87
2023-03-06T03:24:31.649Z,93.77
2023-03-06T03:25:31.629Z,93.66
2023-03-06T03:26:31.603Z,93.77
2023-03-06T03:27:31.589Z,93.66
2023-03-06T03:28:31.658Z,93.56
2023-03-06T03:29:31.565Z,93.87
2023-03-06T03:30:31.592Z,93.77
2023-03-06T03:31:31.587Z,93.56
2023-03-06T03:32:31.587Z,93.35
2023-03-06T03:33:31.532Z,93.56
2023-03-06T03:34:31.518Z,93.46
2023-03-06T03:35:31.521Z,93.66
2023-03-06T03:36:31.493Z,93.98
2023-03-06T03:37:31.496Z,93.77
2023-03-06T03:38:31.466Z,94.29
2023-03-06T03:39:31.457Z,93.77
2023-03-06T03:40:31.455Z,93.66
2023-03-06T03:41:31.459Z,93.77
2023-03-06T03:42:31.453Z,94.18
2023-03-06T03:43:31.411Z,93.35
2023-03-06T03:44:31.413Z,93.77
2023-03-06T03:45:31.388Z,93.98
2023-03-06T03:46:31.436Z,94.29
2023-03-06T03:47:31.394Z,94.18
2023-03-06T03:48:31.362Z,94.29
2023-03-06T03:49:31.347Z,94.14
2023-03-06T03:50:31.341Z,93.98
2023-03-06T03:51:31.328Z,93.98
2023-03-06T03:52:31.339Z,94.08
2023-03-06T03:53:31.313Z,94.18
2023-03-06T03:54:31.369Z,94.08
2023-03-06T03:55:31.290Z,94.08
2023-03-06T03:56:31.275Z,94.08
2023-03-06T03:57:31.253Z,94.08
2023-03-06T03:58:31.272Z,93.98
2023-03-06T03:59:31.237Z,94.18
2023-03-06T04:00:31.219Z,94.60
2023-03-06T04:01:31.210Z,94.81
2023-03-06T04:02:31.216Z,94.39
2023-03-06T04:03:31.220Z,94.49
2023-03-06T04:04:31.234Z,94.70
2023-03-06T04:05:31.184Z,94.49
2023-03-06T04:06:31.169Z,94.39
2023-03-06T04:07:31.158Z,94.70
2023-03-06T04:08:31.171Z,94.70
2023-03-06T04:09:31.146Z,94.29
2023-03-06T04:10:31.114Z,94.60
2023-03-06T04:11:31.096Z,94.29
2023-03-06T04:12:31.092Z,94.18
2023-03-06T04:13:31.082Z,94.29
2023-03-06T04:14:31.090Z,94.70
2023-03-06T04:15:31.053Z,94.92
2023-03-06T04:16:31.124Z,94.81
2023-03-06T04:17:31.031Z,94.70
2023-03-06T04:18:31.066Z,94.70
2023-03-06T04:19:31.058Z,94.81
2023-03-06T04:20:31.046Z,94.49
2023-03-06T04:21:30.997Z,94.81
2023-03-06T04:22:30.982Z,94.81
2023-03-06T04:23:30.969Z,94.60
2023-03-06T04:24:30.957Z,94.39
2023-03-06T04:25:30.943Z,94.81
2023-03-06T04:26:30.958Z,94.49
2023-03-06T04:27:30.921Z,94.60
2023-03-06T04:28:30.917Z,94.49
2023-03-06T04:29:30.942Z,94.29
2023-03-06T04:30:30.912Z,95.02
2023-03-06T04:31:30.949Z,95.02
2023-03-06T04:32:30.928Z,95.02
2023-03-06T04:33:30.857Z,95.02
2023-03-06T04:34:30.889Z,95.33
2023-03-06T04:35:30.849Z,95.12
2023-03-06T04:36:30.840Z,95.33
2023-03-06T04:37:30.816Z,95.43
2023-03-06T04:38:31.054Z,95.43
2023-03-06T04:39:30.814Z,95.12
2023-03-06T04:40:30.784Z,95.33
2023-03-06T04:41:30.825Z,95.43
2023-03-06T04:42:30.762Z,95.33
2023-03-06T04:43:30.746Z,95.12
2023-03-06T04:44:30.741Z,95.33
2023-03-06T04:45:30.780Z,94.92
2023-03-06T04:46:30.740Z,95.02
2023-03-06T04:47:30.709Z,94.92
2023-03-06T04:48:30.691Z,94.92
2023-03-06T04:49:30.683Z,95.02
2023-03-06T04:50:30.702Z,95.12
2023-03-06T04:51:30.704Z,95.12
2023-03-06T04:52:30.686Z,95.33
2023-03-06T04:53:30.652Z,95.23
2023-03-06T04:54:30.630Z,95.02
2023-03-06T04:55:30.614Z,94.92
2023-03-06T04:56:30.617Z,95.12
2023-03-06T04:57:30.612Z,95.23
2023-03-06T04:58:30.593Z,95.23
2023-03-06T04:59:30.581Z,95.23
2023-03-06T05:00:30.632Z,95.33
2023-03-06T05:01:30.551Z,95.12
2023-03-06T05:02:30.604Z,95.12
2023-03-06T05:03:30.529Z,95.33
2023-03-06T05:04:30.545Z,95.33
2023-03-06T05:05:30.514Z,95.23
2023-03-06T05:06:30.514Z,95.23
2023-03-06T05:07:30.509Z,95.64
2023-03-06T05:08:30.470Z,95.12
2023-03-06T05:09:30.458Z,95.64
2023-03-06T05:10:30.457Z,95.75
2023-03-06T05:11:30.438Z,95.29
2023-03-06T05:12:30.448Z,95.54
2023-03-06T05:13:30.416Z,95.33
2023-03-06T05:14:30.403Z,95.29
2023-03-06T05:15:30.412Z,95.33
2023-03-06T05:16:30.455Z,95.33
2023-03-06T05:17:30.367Z,95.12
2023-03-06T05:18:30.359Z,95.08
2023-03-06T05:19:30.357Z,95.33
2023-03-06T05:20:30.337Z,95.33
2023-03-06T05:21:30.341Z,96.16
2023-03-06T05:22:30.426Z,95.85
2023-03-06T05:23:30.301Z,95.75
2023-03-06T05:24:30.292Z,95.75
2023-03-06T05:25:30.334Z,96.06
2023-03-06T05:26:30.285Z,96.52
2023-03-06T05:27:30.285Z,96.11
2023-03-06T05:28:30.250Z,96.11
2023-03-06T05:29:30.237Z,96.31
2023-03-06T05:30:30.264Z,96.00
2023-03-06T05:31:30.232Z,96.67
2023-03-06T05:32:30.257Z,96.42
2023-03-06T05:33:30.202Z,96.31
2023-03-06T05:34:30.189Z,97.35
2023-03-06T05:35:30.241Z,97.19
2023-03-06T05:36:30.167Z,97.09
2023-03-06T05:37:30.148Z,96.88
2023-03-06T05:38:30.176Z,97.50
2023-03-06T05:39:30.134Z,97.40
2023-03-06T05:40:30.123Z,97.50
2023-03-06T05:41:30.106Z,97.65
2023-03-06T05:42:30.110Z,97.65
2023-03-06T05:43:30.086Z,97.34
2023-03-06T05:44:30.093Z,97.44
2023-03-06T05:45:30.075Z,97.44
2023-03-06T05:46:30.077Z,97.24
2023-03-06T05:47:30.057Z,97.44
2023-03-06T05:48:30.033Z,97.55
2023-03-06T05:49:30.022Z,97.65
2023-03-06T05:50:30.042Z,97.65
2023-03-06T05:51:29.994Z,97.86
2023-03-06T05:52:29.989Z,98.18
2023-03-06T05:53:29.991Z,97.97
2023-03-06T05:54:29.986Z,97.86
2023-03-06T05:55:29.955Z,97.86
2023-03-06T05:56:29.966Z,97.86
2023-03-06T05:57:29.934Z,97.97
2023-03-06T05:58:29.922Z,97.97
2023-03-06T05:59:29.936Z,97.97
2023-03-06T06:00:29.924Z,97.97
2023-03-06T06:01:29.901Z,97.97
2023-03-06T06:02:30.064Z,97.55
2023-03-06T06:03:29.925Z,97.65
2023-03-06T06:04:29.882Z,97.86
2023-03-06T06:05:29.847Z,97.86
2023-03-06T06:06:29.827Z,98.07
2023-03-06T06:07:29.836Z,97.75
2023-03-06T06:08:29.813Z,97.97
2023-03-06T06:09:29.820Z,97.86
2023-03-06T06:10:29.802Z,98.59
2023-03-06T06:11:29.809Z,98.49
2023-03-06T06:12:29.780Z,98.69
2023-03-06T06:13:29.771Z,98.49
2023-03-06T06:14:29.751Z,98.44
2023-03-06T06:15:29.728Z,98.69
2023-03-06T06:16:29.729Z,98.28
2023-03-06T06:17:29.733Z,98.07
2023-03-06T06:18:29.712Z,98.07
2023-03-06T06:19:29.706Z,98.28
2023-03-06T06:20:29.689Z,98.38
2023-03-06T06:21:29.692Z,99.22
2023-03-06T06:22:29.670Z,99.11
2023-03-06T06:23:29.648Z,99.07
2023-03-06T06:24:29.650Z,99.07
2023-03-06T06:25:29.647Z,99.07
2023-03-06T06:26:29.636Z,99.27
2023-03-06T06:27:29.605Z,99.27
2023-03-06T06:28:29.601Z,98.96
2023-03-06T06:29:29.617Z,99.07
2023-03-06T06:30:29.571Z,98.65
2023-03-06T06:31:29.598Z,98.75
2023-03-06T06:32:29.608Z,98.75
2023-03-06T06:33:29.561Z,98.96
2023-03-06T06:34:29.561Z,98.75
2023-03-06T06:35:29.561Z,98.75
2023-03-06T06:36:29.648Z,98.65
2023-03-06T06:37:29.651Z,98.71
2023-03-06T06:38:29.477Z,98.71
2023-03-06T06:39:29.469Z,98.82
2023-03-06T06:40:29.480Z,99.02
2023-03-06T06:41:54.602Z,99.17
2023-03-06T06:42:36.300Z,98.92
2023-03-06T06:43:30.537Z,98.92
2023-03-06T06:44:29.588Z,99.02
2023-03-06T06:45:29.652Z,99.02
2023-03-06T06:47:18.153Z,98.92
2023-03-06T06:47:30.456Z,99.02
2023-03-06T06:48:29.520Z,98.92
2023-03-06T06:49:29.849Z,98.97
2023-03-06T06:50:29.757Z,98.71
2023-03-06T06:51:29.849Z,98.66
2023-03-06T06:52:30.019Z,98.87
2023-03-06T06:53:29.956Z,98.46
2023-03-06T06:54:29.412Z,98.97
2023-03-06T06:55:29.347Z,98.46
2023-03-06T06:56:29.374Z,98.87
2023-03-06T06:57:29.311Z,98.87
2023-03-06T06:58:29.283Z,98.77
2023-03-06T06:59:29.249Z,98.87
2023-03-06T07:00:29.283Z,98.56
2023-03-06T07:01:29.270Z,98.77
2023-03-06T07:02:29.220Z,98.62
2023-03-06T07:03:29.216Z,98.72
2023-03-06T07:04:29.227Z,98.66
2023-03-06T07:05:29.183Z,98.46
2023-03-06T07:06:29.215Z,98.46
2023-03-06T07:07:29.164Z,98.66
2023-03-06T07:08:29.152Z,98.52
2023-03-06T07:09:29.139Z,98.83
2023-03-06T07:10:29.141Z,98.83
2023-03-06T07:11:29.155Z,98.56
2023-03-06T07:12:29.134Z,98.66
2023-03-06T07:13:29.102Z,98.52
2023-03-06T07:14:29.106Z,98.56
2023-03-06T07:15:29.093Z,98.66
2023-03-06T07:16:29.073Z,98.83
2023-03-06T07:17:29.058Z,98.66
2023-03-06T07:18:29.044Z,98.77
2023-03-06T07:19:29.034Z,98.66
2023-03-06T07:20:29.096Z,98.83
2023-03-06T07:21:29.033Z,98.72
2023-03-06T07:22:31.975Z,98.77
2023-03-06T07:23:29.982Z,98.77
2023-03-06T07:24:28.974Z,98.72
2023-03-06T07:25:28.954Z,98.62
2023-03-06T07:26:29.004Z,98.72
2023-03-06T07:27:28.985Z,98.83
2023-03-06T07:28:28.934Z,98.78
2023-03-06T07:29:28.914Z,98.47
2023-03-06T07:30:29.032Z,98.53
2023-03-06T07:31:29.098Z,98.53
2023-03-06T07:32:28.960Z,98.74
2023-03-06T07:33:28.898Z,99.05
2023-03-06T07:34:28.872Z,98.80
2023-03-06T07:35:28.854Z,98.59
2023-03-06T07:36:28.853Z,98.90
2023-03-06T07:37:28.860Z,97.96
2023-03-06T07:38:28.867Z,98.23
2023-03-06T07:39:28.817Z,97.81
2023-03-06T07:40:28.801Z,98.33
2023-03-06T07:41:28.840Z,98.13
2023-03-06T07:42:28.887Z,98.19
2023-03-06T07:43:28.774Z,97.45
2023-03-06T07:44:28.793Z,97.45
2023-03-06T07:45:28.892Z,97.50
2023-03-06T07:46:29.269Z,97.61
2023-03-06T07:47:28.721Z,97.45
2023-03-06T07:48:28.724Z,97.40
2023-03-06T07:49:28.712Z,97.09
2023-03-06T07:50:28.726Z,97.04
2023-03-06T07:51:28.711Z,97.09
2023-03-06T07:52:28.686Z,97.13
2023-03-06T07:53:28.665Z,97.44
2023-03-06T07:54:28.684Z,97.13
2023-03-06T07:55:28.665Z,97.03
2023-03-06T07:56:28.671Z,96.92
2023-03-06T07:57:28.621Z,96.82
2023-03-06T07:58:28.684Z,96.30
2023-03-06T07:59:28.612Z,96.30
2023-03-06T08:00:28.585Z,95.99
2023-03-06T08:01:28.599Z,95.78
2023-03-06T08:02:28.579Z,96.30
2023-03-06T08:03:28.706Z,95.99
2023-03-06T08:04:30.052Z,95.99
2023-03-06T08:05:28.540Z,95.78
2023-03-06T08:06:28.546Z,95.89
2023-03-06T08:07:28.516Z,96.41
2023-03-06T08:08:28.532Z,96.51
2023-03-06T08:09:28.492Z,96.30
2023-03-06T08:10:28.479Z,95.99
2023-03-06T08:11:28.470Z,96.20
2023-03-06T08:12:28.452Z,96.41
2023-03-06T08:13:28.465Z,96.09
2023-03-06T08:14:28.425Z,95.99
2023-03-06T08:15:28.424Z,96.30
2023-03-06T08:16:28.497Z,96.41
2023-03-06T08:17:28.401Z,96.30
2023-03-06T08:18:28.453Z,96.51
2023-03-06T08:19:28.381Z,96.20
2023-03-06T08:20:28.362Z,96.04
2023-03-06T08:21:28.356Z,96.30
2023-03-06T08:22:28.347Z,95.67
2023-03-06T08:23:28.375Z,95.47
2023-03-06T08:24:28.322Z,95.05
2023-03-06T08:25:28.306Z,94.95
2023-03-06T08:26:28.298Z,95.05
2023-03-06T08:27:28.309Z,94.12
2023-03-06T08:28:28.299Z,94.32
2023-03-06T08:29:28.261Z,94.22
2023-03-06T08:30:28.260Z,94.12
2023-03-06T08:31:28.280Z,94.32
2023-03-06T08:32:28.312Z,93.91
2023-03-06T08:33:28.239Z,94.12
2023-03-06T08:34:28.241Z,94.53
2023-03-06T08:35:28.252Z,94.01
2023-03-06T08:36:28.188Z,94.22
2023-03-06T08:37:28.233Z,94.22
2023-03-06T08:38:28.180Z,94.12
2023-03-06T08:39:28.163Z,94.12
2023-03-06T08:40:28.137Z,94.43
2023-03-06T08:41:28.193Z,94.53
2023-03-06T08:42:28.144Z,94.12
2023-03-06T08:43:28.150Z,94.32
2023-03-06T08:44:28.149Z,94.12
2023-03-06T08:45:28.148Z,94.12
2023-03-06T08:46:28.100Z,94.53
2023-03-06T08:47:28.075Z,94.32
2023-03-06T08:48:28.084Z,94.32
2023-03-06T08:49:28.346Z,94.01
2023-03-06T08:50:28.067Z,94.32
2023-03-06T08:51:28.041Z,94.53
2023-03-06T08:52:36.122Z,94.64
2023-03-06T08:53:41.616Z,94.43
2023-03-06T08:54:28.988Z,94.22
2023-03-06T08:55:27.974Z,93.80
2023-03-06T08:56:28.006Z,93.49
2023-03-06T08:57:27.957Z,93.01
2023-03-06T08:58:27.952Z,92.86
2023-03-06T08:59:27.935Z,93.29
2023-03-06T09:00:28.008Z,93.70
2023-03-06T09:01:27.971Z,93.80
2023-03-06T09:02:28.014Z,93.29
2023-03-06T09:03:27.906Z,93.60
2023-03-06T09:04:27.907Z,93.07
2023-03-06T09:05:27.891Z,93.07
2023-03-06T09:06:27.943Z,93.07
2023-03-06T09:07:27.837Z,93.60
2023-03-06T09:08:27.844Z,93.29
2023-03-06T09:09:27.850Z,93.39
2023-03-06T09:10:27.889Z,93.49
2023-03-06T09:11:27.797Z,93.39
2023-03-06T09:12:29.271Z,93.55
2023-03-06T09:13:27.773Z,93.91
2023-03-06T09:14:27.798Z,93.49
2023-03-06T09:15:27.785Z,93.66
2023-03-06T09:16:27.867Z,93.80
2023-03-06T09:17:27.810Z,93.87
2023-03-06T09:18:27.776Z,93.76
2023-03-06T09:19:27.720Z,93.55
2023-03-06T09:20:27.761Z,93.93
2023-03-06T09:21:27.690Z,93.72
2023-03-06T09:22:27.727Z,93.24
2023-03-06T09:23:27.704Z,93.51
2023-03-06T09:24:27.677Z,93.10
2023-03-06T09:25:27.653Z,93.51
2023-03-06T09:26:39.531Z,93.62
2023-03-06T09:27:28.623Z,93.47
2023-03-06T09:28:27.671Z,93.57
2023-03-06T09:29:27.625Z,93.43
2023-03-06T09:30:27.589Z,93.43
2023-03-06T09:31:27.633Z,93.32
2023-03-06T09:32:27.659Z,93.07
2023-03-06T09:33:27.595Z,93.59
2023-03-06T09:34:27.586Z,93.38
2023-03-06T09:35:27.625Z,93.07
2023-03-06T09:36:27.542Z,92.93
2023-03-06T09:37:27.555Z,93.23
2023-03-06T09:38:27.555Z,93.23
2023-03-06T09:39:27.631Z,92.20
2023-03-06T09:40:27.486Z,91.99
2023-03-06T09:41:27.476Z,92.10
2023-03-06T09:42:27.479Z,91.68
2023-03-06T09:43:27.444Z,91.47
2023-03-06T09:44:27.460Z,91.37
2023-03-06T09:45:27.421Z,90.17
2023-03-06T09:46:27.504Z,89.54
2023-03-06T09:47:27.409Z,88.96
2023-03-06T09:48:27.390Z,89.58
2023-03-06T09:49:27.375Z,89.75
2023-03-06T09:50:27.367Z,90.83
2023-03-06T09:51:27.376Z,91.52
2023-03-06T09:52:27.338Z,91.41
2023-03-06T09:53:27.330Z,91.20
2023-03-06T09:54:27.377Z,90.37
2023-03-06T09:55:27.364Z,91.03
2023-03-06T09:56:27.307Z,89.79
2023-03-06T09:57:27.284Z,89.17
2023-03-06T09:58:27.312Z,89.58
2023-03-06T09:59:27.327Z,89.69
2023-03-06T10:00:27.253Z,89.27
2023-03-06T10:01:27.263Z,89.58
2023-03-06T10:02:27.367Z,89.79
2023-03-06T10:03:27.316Z,89.73
2023-03-06T10:04:27.273Z,88.85
2023-03-06T10:05:27.222Z,89.69
2023-03-06T10:06:27.223Z,89.27
2023-03-06T10:07:27.186Z,89.94
2023-03-06T10:08:27.169Z,89.73
2023-03-06T10:09:27.166Z,89.83
2023-03-06T10:10:27.194Z,90.04
2023-03-06T10:11:27.210Z,89.73
2023-03-06T10:12:27.141Z,89.83
2023-03-06T10:13:27.271Z,89.52
2023-03-06T10:14:27.110Z,90.00
2023-03-06T10:15:27.164Z,90.00
2023-03-06T10:16:27.089Z,89.89
2023-03-06T10:17:27.113Z,89.65
2023-03-06T10:18:27.061Z,89.75
2023-03-06T10:19:27.068Z,89.61
2023-03-06T10:20:27.067Z,89.40
2023-03-06T10:21:27.025Z,88.78
2023-03-06T10:22:27.037Z,88.98
2023-03-06T10:23:27.005Z,88.46
2023-03-06T10:24:26.999Z,88.73
2023-03-06T10:25:27.001Z,87.90
2023-03-06T10:26:27.106Z,87.70
2023-03-06T10:27:26.997Z,87.70
2023-03-06T10:28:26.954Z,87.18
2023-03-06T10:29:26.936Z,87.45
2023-03-06T10:30:26.951Z,87.87
2023-03-06T10:31:27.052Z,86.93
2023-03-06T10:32:30.398Z,87.28
2023-03-06T10:33:27.927Z,85.94
2023-03-06T10:34:26.883Z,85.73
2023-03-06T10:35:28.656Z,85.52
2023-03-06T10:36:26.904Z,86.35
2023-03-06T10:37:26.891Z,85.31
2023-03-06T10:38:26.848Z,85.35
2023-03-06T10:39:26.845Z,86.29
2023-03-06T10:40:26.812Z,86.60
2023-03-06T10:41:26.819Z,86.64
2023-03-06T10:42:28.931Z,86.02
2023-03-06T10:43:26.812Z,86.64
2023-03-06T10:44:26.783Z,86.43
2023-03-06T10:45:26.758Z,87.09
2023-03-06T10:46:26.811Z,86.88
2023-03-06T10:47:26.764Z,87.51
2023-03-06T10:48:26.732Z,87.19
2023-03-06T10:49:26.795Z,87.30
2023-03-06T10:50:26.736Z,87.30
2023-03-06T10:51:26.686Z,87.92
2023-03-06T10:52:26.688Z,88.13
2023-03-06T10:53:26.680Z,88.02
2023-03-06T10:54:26.655Z,88.02
2023-03-06T10:55:26.682Z,87.71
2023-03-06T10:56:26.647Z,86.88
2023-03-06T10:57:26.626Z,86.72
2023-03-06T10:58:26.663Z,87.40
2023-03-06T10:59:26.681Z,87.61
2023-03-06T11:00:26.646Z,88.44
2023-03-06T11:01:26.623Z,88.44
2023-03-06T11:02:26.589Z,88.54
2023-03-06T11:03:26.570Z,89.17
2023-03-06T11:04:26.610Z,89.06
2023-03-06T11:05:26.569Z,88.85
2023-03-06T11:06:26.535Z,89.06
2023-03-06T11:07:27.293Z,88.85
2023-03-06T11:08:26.529Z,89.48
2023-03-06T11:09:26.509Z,89.44
2023-03-06T11:10:26.524Z,89.54
2023-03-06T11:11:37.222Z,90.06
2023-03-06T11:12:27.482Z,89.50
2023-03-06T11:13:26.536Z,89.50
2023-03-06T11:14:27.744Z,89.61
2023-03-06T11:15:26.436Z,89.29
2023-03-06T11:16:26.474Z,89.09
2023-03-06T11:17:26.442Z,89.04
2023-03-06T11:18:26.396Z,89.25
2023-03-06T11:19:26.405Z,88.73
2023-03-06T11:20:26.381Z,88.69
2023-03-06T11:21:26.375Z,88.79
2023-03-06T11:22:26.383Z,88.28
2023-03-06T11:23:26.344Z,88.24
2023-03-06T11:24:26.334Z,88.65
2023-03-06T11:25:26.328Z,87.41
2023-03-06T11:26:26.307Z,88.13
2023-03-06T11:27:26.320Z,86.37
2023-03-06T11:28:26.436Z,85.82
2023-03-06T11:29:26.339Z,87.06
2023-03-06T11:30:26.337Z,87.47
2023-03-06T11:31:26.284Z,87.12
2023-03-06T11:32:26.322Z,86.19
2023-03-06T11:33:26.264Z,85.99
2023-03-06T11:34:26.214Z,85.16
2023-03-06T11:35:26.243Z,85.36
2023-03-06T11:36:26.188Z,86.15
2023-03-06T11:37:26.215Z,85.68
2023-03-06T11:38:26.189Z,84.60
2023-03-06T11:39:26.177Z,85.11
2023-03-06T11:40:26.167Z,85.02
2023-03-06T11:41:26.145Z,84.60
2023-03-06T11:42:26.126Z,83.56
2023-03-06T11:43:26.176Z,82.95
2023-03-06T11:44:26.097Z,82.64
2023-03-06T11:45:26.456Z,82.95
2023-03-06T11:46:26.296Z,83.56
2023-03-06T11:47:26.062Z,82.64
2023-03-06T11:48:26.045Z,83.77
2023-03-06T11:49:26.083Z,82.22
2023-03-06T11:50:26.030Z,82.43
2023-03-06T11:51:26.140Z,80.88
2023-03-06T11:52:26.008Z,80.50
2023-03-06T11:53:26.007Z,80.50
2023-03-06T11:54:25.991Z,81.43
2023-03-06T11:55:26.014Z,81.47
2023-03-06T11:56:25.973Z,81.37
2023-03-06T11:57:25.954Z,82.29
2023-03-06T11:58:25.950Z,81.68
2023-03-06T11:59:25.940Z,81.78
2023-03-06T12:00:25.949Z,82.60
2023-03-06T12:01:25.912Z,81.99
2023-03-06T12:02:25.988Z,79.54
2023-03-06T12:03:25.922Z,80.26
2023-03-06T12:04:25.904Z,80.57
2023-03-06T12:05:26.009Z,80.02
2023-03-06T12:06:25.870Z,81.23
2023-03-06T12:07:25.974Z,80.43
2023-03-06T12:08:25.832Z,80.54
2023-03-06T12:09:25.851Z,79.88
2023-03-06T12:10:25.823Z,79.26
2023-03-06T12:11:25.812Z,81.02
2023-03-06T12:12:25.825Z,80.43
2023-03-06T12:14:25.818Z,80.54
2023-03-06T12:15:25.766Z,80.12
2023-03-06T12:16:25.829Z,80.43
2023-03-06T12:17:25.771Z,80.85
2023-03-06T12:18:25.769Z,80.19
2023-03-06T12:19:25.706Z,80.22
2023-03-06T12:20:25.716Z,81.57
2023-03-06T12:21:25.693Z,82.29
2023-03-06T12:22:25.680Z,82.92
2023-03-06T12:23:25.705Z,83.68
2023-03-06T12:24:25.687Z,83.37
2023-03-06T12:25:25.664Z,83.58
2023-03-06T12:26:25.645Z,83.99
2023-03-06T12:27:25.638Z,84.72
2023-03-06T12:28:25.845Z,84.20
2023-03-06T12:29:25.635Z,84.41
2023-03-06T12:30:26.148Z,85.24
2023-03-06T12:31:25.638Z,85.48
2023-03-06T12:32:25.610Z,85.89
2023-03-06T12:33:25.587Z,87.04
2023-03-06T12:34:25.625Z,88.18
2023-03-06T12:35:25.664Z,88.94
2023-03-06T12:36:25.535Z,88.84
2023-03-06T12:37:25.529Z,89.92
2023-03-06T12:38:25.508Z,89.61
2023-03-06T12:39:25.532Z,90.33
2023-03-06T12:40:25.526Z,90.12
2023-03-06T12:41:25.502Z,90.58
2023-03-06T12:42:25.466Z,90.89
2023-03-06T12:43:25.468Z,90.69
2023-03-06T12:44:25.510Z,91.24
2023-03-06T12:45:25.434Z,91.45
2023-03-06T12:46:25.520Z,90.93
2023-03-06T12:47:25.399Z,91.66
2023-03-06T12:48:25.404Z,91.10
2023-03-06T12:49:32.062Z,91.66
2023-03-06T12:50:26.477Z,91.55
2023-03-06T12:51:25.397Z,91.76
2023-03-06T12:52:30.258Z,91.55
2023-03-06T12:53:26.349Z,91.14